Pacific Princess — ZCDS3 — position and weather

sailwx.info

Track history (hours):
 
Tides and Currents Weather Stations Pressure Air Temp Water Temp Dewpoint Dewpoint Depression Visibility Wind Speed Wind Dir Waves Ship Positions

Pacific Princess (Bermuda)

Last reported at 2015-Jul-28 14:33 UTC. Time now 2015-Jul-28 15:20 UTC.
Position N 50°46' W 127°13'.

Length 180.5 m; beam 25.6 m; draft 6 m.

Type: Passenger vessel. MMSI: 310504000.

Date/timePositionNaut miles runAvg speedWind from/ knotsBaromVisibWave heightAir tempDewpointWater temp
2015-Jul-28 14:33N 50°46' W 127°13'8115.7
2015-Jul-28 09:24N 50°07' W 125°21'1112.5
2015-Jul-28 08:33N 49°59' W 125°11'10 9.9
2015-Jul-28 07:33N 49°52' W 125°00'1110.9
2015-Jul-28 06:33N 49°44' W 124°49'1010.2
2015-Jul-28 05:33N 49°36' W 124°38'1010.4
2015-Jul-28 04:33N 49°29' W 124°27'1010.2
2015-Jul-28 03:33N 49°24' W 124°13'1010.1
2015-Jul-28 02:33N 49°22' W 123°58'1010.4
2015-Jul-28 01:33N 49°20' W 123°43'1110.9
2015-Jul-28 00:33N 49°19' W 123°26'1111.0
2015-Jul-27 23:33N 49°19' W 123°09'2 2.3
2015-Jul-27 22:32N 49°17' W 123°06'0 0.0
2015-Jul-27 21:32N 49°17' W 123°06'0 0.0
2015-Jul-27 20:32N 49°17' W 123°06'0 0.0
2015-Jul-27 19:32N 49°17' W 123°06'0 0.0
2015-Jul-27 18:32N 49°17' W 123°06'0 0.0
2015-Jul-27 17:32N 49°17' W 123°06'0 0.0
2015-Jul-27 16:32N 49°17' W 123°06'0 0.0
2015-Jul-27 15:32N 49°17' W 123°06'0 0.0
2015-Jul-27 14:32N 49°17' W 123°06'0 0.2
2015-Jul-27 13:33N 49°17' W 123°06'8 7.7
2015-Jul-27 12:33N 49°18' W 123°18'9 9.0
2015-Jul-27 11:33N 49°18' W 123°32'1212.0
2015-Jul-27 10:33N 49°20' W 123°50'1212.2
2015-Jul-27 09:33N 49°23' W 124°08'1212.0
2015-Jul-27 08:33N 49°27' W 124°25'1211.7
2015-Jul-27 07:33N 49°36' W 124°38'1211.2
2015-Jul-27 06:31N 49°44' W 124°50'1111.3
2015-Jul-27 05:33N 49°52' W 125°02'1111.2
2015-Jul-27 04:33N 50°01' W 125°13'1312.4
2015-Jul-27 03:32N 50°12' W 125°22'7715.4
2015-Jul-26 22:32N 50°45' W 127°10'510.1
2015-Jul-26 22:00N 50°48' W 127°18'1126.4 330 / 91020.710.8 1.016.513.2
2015-Jul-26 21:34N 50°52' W 127°35'1515.1
2015-Jul-26 20:33N 51°02' W 127°54'2810.9
2015-Jul-26 18:00N 51°18' W 128°30'6115.2 1019.210.8 1.016.513.2
2015-Jul-26 14:00N 52°06' W 129°30'305 9.8 300 / 31020.910.8 0.514.511.916.0
2015-Jul-25 07:00N 56°18' W 134°24'9319.2 340 / 41010.810.8 1.012.0 8.3-0.0
2015-Jul-25 02:11N 57°49' W 133°51'1118.5
2015-Jul-25 01:34N 57°59' W 134°00'59 1.3
2015-Jul-23 04:33N 58°18' W 135°46'1010.2
2015-Jul-23 03:33N 58°25' W 135°59'1211.6
2015-Jul-23 02:33N 58°37' W 136°04'9 1.2
2015-Jul-22 19:00N 58°42' W 136°18'4 8.0 320 / 81011.5 5.4 0.511.0 9.2
2015-Jul-22 18:31N 58°41' W 136°11'1313.6
2015-Jul-22 17:33N 58°29' W 136°03'8 8.0
2015-Jul-22 16:33N 58°21' W 136°03'3112.0
2015-Jul-22 14:00N 58°06' W 136°54'6320.9 110 / 61013.1 5.4 15.513.9
2015-Jul-22 11:00N 58°24' W 138°48'24 8.1 110 / 81012.610.8 1.015.013.3
2015-Jul-22 08:00N 58°48' W 138°42'27111.3 110 / 41010.3 5.4 1.015.013.3
2015-Jul-21 08:00N 60°36' W 146°54'13 0.4 250 / 201012.210.8 1.519.014.210.0
2015-Jul-19 23:00N 60°42' W 147°18'10214.6 250 / 131019.010.8 1.515.012.510.0
2015-Jul-19 16:00N 59°36' W 144°42'27916.9 320 / 101023.110.8 1.013.5 9.016.0
2015-Jul-18 23:33N 58°21' W 136°01'1110.7
2015-Jul-18 22:33N 58°32' W 136°04'10 1.4
2015-Jul-18 15:28N 58°41' W 136°11'1213.4
2015-Jul-18 14:33N 58°29' W 136°03'  
Track history (hours):
 
Tides and Currents Weather Stations Pressure Air Temp Water Temp Dewpoint Dewpoint Depression Visibility Wind Speed Wind Dir Waves Ship Positions

Pacific Princess (Bermuda)

Last reported at 2015-Jul-28 14:33 UTC. Time now 2015-Jul-28 15:20 UTC.
Position N 50°46' W 127°13'.

Length 180.5 m; beam 25.6 m; draft 6 m.

Type: Passenger vessel. MMSI: 310504000.

Date/timePositionNaut miles runAvg speedWind from/ knotsBaromVisibWave heightAir tempDewpointWater temp
2015-Jul-28 14:33N 50°46' W 127°13'8115.7
2015-Jul-28 09:24N 50°07' W 125°21'1112.5
2015-Jul-28 08:33N 49°59' W 125°11'10 9.9
2015-Jul-28 07:33N 49°52' W 125°00'1110.9
2015-Jul-28 06:33N 49°44' W 124°49'1010.2
2015-Jul-28 05:33N 49°36' W 124°38'1010.4
2015-Jul-28 04:33N 49°29' W 124°27'1010.2
2015-Jul-28 03:33N 49°24' W 124°13'1010.1
2015-Jul-28 02:33N 49°22' W 123°58'1010.4
2015-Jul-28 01:33N 49°20' W 123°43'1110.9
2015-Jul-28 00:33N 49°19' W 123°26'1111.0
2015-Jul-27 23:33N 49°19' W 123°09'2 2.3
2015-Jul-27 22:32N 49°17' W 123°06'0 0.0
2015-Jul-27 21:32N 49°17' W 123°06'0 0.0
2015-Jul-27 20:32N 49°17' W 123°06'0 0.0
2015-Jul-27 19:32N 49°17' W 123°06'0 0.0
2015-Jul-27 18:32N 49°17' W 123°06'0 0.0
2015-Jul-27 17:32N 49°17' W 123°06'0 0.0
2015-Jul-27 16:32N 49°17' W 123°06'0 0.0
2015-Jul-27 15:32N 49°17' W 123°06'0 0.0
2015-Jul-27 14:32N 49°17' W 123°06'0 0.2
2015-Jul-27 13:33N 49°17' W 123°06'8 7.7
2015-Jul-27 12:33N 49°18' W 123°18'9 9.0
2015-Jul-27 11:33N 49°18' W 123°32'1212.0
2015-Jul-27 10:33N 49°20' W 123°50'1212.2
2015-Jul-27 09:33N 49°23' W 124°08'1212.0
2015-Jul-27 08:33N 49°27' W 124°25'1211.7
2015-Jul-27 07:33N 49°36' W 124°38'1211.2
2015-Jul-27 06:31N 49°44' W 124°50'1111.3
2015-Jul-27 05:33N 49°52' W 125°02'1111.2
2015-Jul-27 04:33N 50°01' W 125°13'1312.4
2015-Jul-27 03:32N 50°12' W 125°22'7715.4
2015-Jul-26 22:32N 50°45' W 127°10'510.1
2015-Jul-26 22:00N 50°48' W 127°18'1126.4 330 / 91020.710.8 1.016.513.2
2015-Jul-26 21:34N 50°52' W 127°35'1515.1
2015-Jul-26 20:33N 51°02' W 127°54'2810.9
2015-Jul-26 18:00N 51°18' W 128°30'6115.2 1019.210.8 1.016.513.2
2015-Jul-26 14:00N 52°06' W 129°30'305 9.8 300 / 31020.910.8 0.514.511.916.0
2015-Jul-25 07:00N 56°18' W 134°24'9319.2 340 / 41010.810.8 1.012.0 8.3-0.0
2015-Jul-25 02:11N 57°49' W 133°51'1118.5
2015-Jul-25 01:34N 57°59' W 134°00'59 1.3
2015-Jul-23 04:33N 58°18' W 135°46'1010.2
2015-Jul-23 03:33N 58°25' W 135°59'1211.6
2015-Jul-23 02:33N 58°37' W 136°04'9 1.2
2015-Jul-22 19:00N 58°42' W 136°18'4 8.0 320 / 81011.5 5.4 0.511.0 9.2
2015-Jul-22 18:31N 58°41' W 136°11'1313.6
2015-Jul-22 17:33N 58°29' W 136°03'8 8.0
2015-Jul-22 16:33N 58°21' W 136°03'3112.0
2015-Jul-22 14:00N 58°06' W 136°54'6320.9 110 / 61013.1 5.4 15.513.9
2015-Jul-22 11:00N 58°24' W 138°48'24 8.1 110 / 81012.610.8 1.015.013.3
2015-Jul-22 08:00N 58°48' W 138°42'27111.3 110 / 41010.3 5.4 1.015.013.3
2015-Jul-21 08:00N 60°36' W 146°54'13 0.4 250 / 201012.210.8 1.519.014.210.0
2015-Jul-19 23:00N 60°42' W 147°18'10214.6 250 / 131019.010.8 1.515.012.510.0
2015-Jul-19 16:00N 59°36' W 144°42'27916.9 320 / 101023.110.8 1.013.5 9.016.0
2015-Jul-18 23:33N 58°21' W 136°01'1110.7
2015-Jul-18 22:33N 58°32' W 136°04'10 1.4
2015-Jul-18 15:28N 58°41' W 136°11'1213.4
2015-Jul-18 14:33N 58°29' W 136°03'  

Dump ship's entire track history